Terminal Aerodrome Forecast
Issued by NWS Bismarck, ND

Home | Current Version | Previous Version | Text Only | Print | Product List | Glossary On
Versions: 1 2 3 4 5 6 7 8 9 10 11 12 13 14 15 16 17 18 19 20 21 22
000
FTUS43 KBIS 190400 AAE
TAFISN
TAF AMD
KISN 190441Z 1905/1924 25011KT P6SM SCT001 BKN045 OVC060
      TEMPO 1905/1906 27025G33KT 5SM -SHRA
     FM190600 26015G21KT P6SM SCT090
     FM191500 28019G26KT P6SM FEW150=

USA.gov is the U.S. government's official web portal to all federal, state and local government web resources and services.